sensor_id;sensor_type;location;lat;lon;timestamp;P1;durP1;ratioP1;P2;durP2;ratioP2
66667;SDS011;57205;51.438;-2.006;2023-10-19T00:00:46;3.25;;;0.85;;
66667;SDS011;57205;51.438;-2.006;2023-10-19T00:03:16;4.95;;;0.98;;
66667;SDS011;57205;51.438;-2.006;2023-10-19T00:05:43;3.40;;;1.13;;
66667;SDS011;57205;51.438;-2.006;2023-10-19T00:08:12;2.08;;;0.90;;
66667;SDS011;57205;51.438;-2.006;2023-10-19T00:10:52;2.70;;;1.05;;
66667;SDS011;57205;51.438;-2.006;2023-10-19T00:13:39;3.63;;;0.80;;
66667;SDS011;57205;51.438;-2.006;2023-10-19T00:16:06;2.67;;;0.98;;
66667;SDS011;57205;51.438;-2.006;2023-10-19T00:19:04;2.03;;;0.82;;
66667;SDS011;57205;51.438;-2.006;2023-10-19T00:21:29;5.13;;;0.93;;
66667;SDS011;57205;51.438;-2.006;2023-10-19T00:24:02;7.80;;;1.10;;
66667;SDS011;57205;51.438;-2.006;2023-10-19T00:26:30;5.72;;;0.98;;
66667;SDS011;57205;51.438;-2.006;2023-10-19T00:28:56;1.98;;;0.80;;
66667;SDS011;57205;51.438;-2.006;2023-10-19T00:31:22;2.72;;;0.80;;
66667;SDS011;57205;51.438;-2.006;2023-10-19T00:33:49;1.52;;;0.80;;
66667;SDS011;57205;51.438;-2.006;2023-10-19T00:36:25;2.60;;;0.90;;
66667;SDS011;57205;51.438;-2.006;2023-10-19T00:38:51;1.80;;;0.82;;
66667;SDS011;57205;51.438;-2.006;2023-10-19T00:41:25;3.30;;;0.90;;
66667;SDS011;57205;51.438;-2.006;2023-10-19T00:43:59;4.22;;;0.90;;
66667;SDS011;57205;51.438;-2.006;2023-10-19T00:49:19;1.90;;;0.95;;
66667;SDS011;57205;51.438;-2.006;2023-10-19T00:51:49;5.50;;;0.93;;
66667;SDS011;57205;51.438;-2.006;2023-10-19T00:54:18;6.43;;;0.90;;
66667;SDS011;57205;51.438;-2.006;2023-10-19T00:57:18;5.68;;;1.25;;
66667;SDS011;57205;51.438;-2.006;2023-10-19T01:00:00;1.63;;;0.90;;
66667;SDS011;57205;51.438;-2.006;2023-10-19T01:02:46;3.80;;;0.93;;
66667;SDS011;57205;51.438;-2.006;2023-10-19T01:05:11;2.58;;;1.00;;
66667;SDS011;57205;51.438;-2.006;2023-10-19T01:07:40;2.00;;;0.80;;
66667;SDS011;57205;51.438;-2.006;2023-10-19T01:10:06;2.28;;;0.90;;
66667;SDS011;57205;51.438;-2.006;2023-10-19T01:12:33;3.10;;;1.13;;
66667;SDS011;57205;51.438;-2.006;2023-10-19T01:15:08;6.47;;;1.20;;
66667;SDS011;57205;51.438;-2.006;2023-10-19T01:17:43;3.70;;;0.85;;
66667;SDS011;57205;51.438;-2.006;2023-10-19T01:20:16;8.50;;;1.27;;
66667;SDS011;57205;51.438;-2.006;2023-10-19T01:25:21;4.75;;;1.45;;
66667;SDS011;57205;51.438;-2.006;2023-10-19T01:28:01;2.83;;;1.08;;
66667;SDS011;57205;51.438;-2.006;2023-10-19T01:30:34;4.18;;;1.20;;
66667;SDS011;57205;51.438;-2.006;2023-10-19T01:33:01;6.47;;;1.85;;
66667;SDS011;57205;51.438;-2.006;2023-10-19T01:35:28;7.00;;;1.50;;
66667;SDS011;57205;51.438;-2.006;2023-10-19T01:38:14;4.85;;;1.20;;
66667;SDS011;57205;51.438;-2.006;2023-10-19T01:40:40;7.72;;;1.42;;
66667;SDS011;57205;51.438;-2.006;2023-10-19T01:43:11;9.95;;;2.35;;
66667;SDS011;57205;51.438;-2.006;2023-10-19T01:45:46;2.30;;;1.02;;
66667;SDS011;57205;51.438;-2.006;2023-10-19T01:48:12;4.97;;;1.05;;
66667;SDS011;57205;51.438;-2.006;2023-10-19T01:50:39;7.25;;;1.25;;
66667;SDS011;57205;51.438;-2.006;2023-10-19T01:53:06;4.45;;;1.02;;
66667;SDS011;57205;51.438;-2.006;2023-10-19T01:55:49;5.65;;;1.20;;
66667;SDS011;57205;51.438;-2.006;2023-10-19T01:58:22;3.95;;;0.95;;
66667;SDS011;57205;51.438;-2.006;2023-10-19T02:00:50;6.25;;;1.13;;
66667;SDS011;57205;51.438;-2.006;2023-10-19T02:03:20;3.22;;;1.00;;
66667;SDS011;57205;51.438;-2.006;2023-10-19T02:05:56;5.20;;;1.08;;
66667;SDS011;57205;51.438;-2.006;2023-10-19T02:08:23;4.43;;;1.13;;
66667;SDS011;57205;51.438;-2.006;2023-10-19T02:10:51;3.92;;;1.27;;
66667;SDS011;57205;51.438;-2.006;2023-10-19T02:13:17;5.45;;;0.95;;
66667;SDS011;57205;51.438;-2.006;2023-10-19T02:15:44;3.35;;;1.23;;
66667;SDS011;57205;51.438;-2.006;2023-10-19T02:18:09;4.72;;;1.35;;
66667;SDS011;57205;51.438;-2.006;2023-10-19T02:20:35;4.20;;;0.80;;
66667;SDS011;57205;51.438;-2.006;2023-10-19T02:23:07;3.78;;;0.82;;
66667;SDS011;57205;51.438;-2.006;2023-10-19T02:25:33;5.05;;;0.90;;
66667;SDS011;57205;51.438;-2.006;2023-10-19T02:28:02;2.83;;;0.90;;
66667;SDS011;57205;51.438;-2.006;2023-10-19T02:30:29;5.63;;;1.25;;
66667;SDS011;57205;51.438;-2.006;2023-10-19T02:32:55;3.70;;;1.13;;
66667;SDS011;57205;51.438;-2.006;2023-10-19T02:35:21;3.15;;;0.80;;
66667;SDS011;57205;51.438;-2.006;2023-10-19T02:37:47;6.75;;;1.20;;
66667;SDS011;57205;51.438;-2.006;2023-10-19T02:40:12;3.92;;;1.33;;
66667;SDS011;57205;51.438;-2.006;2023-10-19T02:42:44;7.47;;;1.45;;
66667;SDS011;57205;51.438;-2.006;2023-10-19T02:45:14;9.25;;;1.55;;
66667;SDS011;57205;51.438;-2.006;2023-10-19T02:47:42;8.52;;;1.92;;
66667;SDS011;57205;51.438;-2.006;2023-10-19T02:50:10;9.20;;;1.88;;
66667;SDS011;57205;51.438;-2.006;2023-10-19T02:52:43;8.60;;;1.95;;
66667;SDS011;57205;51.438;-2.006;2023-10-19T02:55:08;9.68;;;3.38;;
66667;SDS011;57205;51.438;-2.006;2023-10-19T02:57:38;10.40;;;1.92;;
66667;SDS011;57205;51.438;-2.006;2023-10-19T03:00:06;18.80;;;2.42;;
66667;SDS011;57205;51.438;-2.006;2023-10-19T03:02:36;17.13;;;2.35;;
66667;SDS011;57205;51.438;-2.006;2023-10-19T03:05:04;7.72;;;1.95;;
66667;SDS011;57205;51.438;-2.006;2023-10-19T03:07:40;10.93;;;2.17;;
66667;SDS011;57205;51.438;-2.006;2023-10-19T03:10:08;10.63;;;2.35;;
66667;SDS011;57205;51.438;-2.006;2023-10-19T03:12:47;12.30;;;2.47;;
66667;SDS011;57205;51.438;-2.006;2023-10-19T03:15:13;16.48;;;2.80;;
66667;SDS011;57205;51.438;-2.006;2023-10-19T03:17:39;21.38;;;3.90;;
66667;SDS011;57205;51.438;-2.006;2023-10-19T03:20:05;9.07;;;2.72;;
66667;SDS011;57205;51.438;-2.006;2023-10-19T03:22:36;22.45;;;3.70;;
66667;SDS011;57205;51.438;-2.006;2023-10-19T03:25:02;12.68;;;3.63;;
66667;SDS011;57205;51.438;-2.006;2023-10-19T03:27:46;14.00;;;3.20;;
66667;SDS011;57205;51.438;-2.006;2023-10-19T03:30:11;18.13;;;5.13;;
66667;SDS011;57205;51.438;-2.006;2023-10-19T03:32:41;15.40;;;3.72;;
66667;SDS011;57205;51.438;-2.006;2023-10-19T03:35:07;19.10;;;3.85;;
66667;SDS011;57205;51.438;-2.006;2023-10-19T03:37:33;17.05;;;4.07;;
66667;SDS011;57205;51.438;-2.006;2023-10-19T03:40:00;21.27;;;3.15;;
66667;SDS011;57205;51.438;-2.006;2023-10-19T03:42:32;25.25;;;3.95;;
66667;SDS011;57205;51.438;-2.006;2023-10-19T03:44:58;18.25;;;3.42;;
66667;SDS011;57205;51.438;-2.006;2023-10-19T03:47:26;15.95;;;3.22;;
66667;SDS011;57205;51.438;-2.006;2023-10-19T03:50:00;22.20;;;3.85;;
66667;SDS011;57205;51.438;-2.006;2023-10-19T03:52:31;24.77;;;3.83;;
66667;SDS011;57205;51.438;-2.006;2023-10-19T03:54:56;18.38;;;3.60;;
66667;SDS011;57205;51.438;-2.006;2023-10-19T03:57:22;12.88;;;2.90;;
66667;SDS011;57205;51.438;-2.006;2023-10-19T03:59:49;20.60;;;4.25;;
66667;SDS011;57205;51.438;-2.006;2023-10-19T04:02:26;15.45;;;4.18;;
66667;SDS011;57205;51.438;-2.006;2023-10-19T04:05:00;19.33;;;3.72;;
66667;SDS011;57205;51.438;-2.006;2023-10-19T04:07:28;23.45;;;3.45;;
66667;SDS011;57205;51.438;-2.006;2023-10-19T04:09:56;23.20;;;3.50;;
66667;SDS011;57205;51.438;-2.006;2023-10-19T04:12:26;23.33;;;3.60;;
66667;SDS011;57205;51.438;-2.006;2023-10-19T04:14:55;15.17;;;3.27;;
66667;SDS011;57205;51.438;-2.006;2023-10-19T04:17:22;15.45;;;3.17;;
66667;SDS011;57205;51.438;-2.006;2023-10-19T04:19:48;15.90;;;2.78;;
66667;SDS011;57205;51.438;-2.006;2023-10-19T04:22:19;11.50;;;2.35;;
66667;SDS011;57205;51.438;-2.006;2023-10-19T04:24:49;10.05;;;1.83;;
66667;SDS011;57205;51.438;-2.006;2023-10-19T04:27:17;14.43;;;2.47;;
66667;SDS011;57205;51.438;-2.006;2023-10-19T04:29:46;11.70;;;2.22;;
66667;SDS011;57205;51.438;-2.006;2023-10-19T04:32:13;5.90;;;2.03;;
66667;SDS011;57205;51.438;-2.006;2023-10-19T04:34:39;7.28;;;1.80;;
66667;SDS011;57205;51.438;-2.006;2023-10-19T04:37:05;8.73;;;1.90;;
66667;SDS011;57205;51.438;-2.006;2023-10-19T04:39:32;12.48;;;3.30;;
66667;SDS011;57205;51.438;-2.006;2023-10-19T04:41:59;8.93;;;2.10;;
66667;SDS011;57205;51.438;-2.006;2023-10-19T04:44:25;11.18;;;1.88;;
66667;SDS011;57205;51.438;-2.006;2023-10-19T04:46:50;14.05;;;2.60;;
66667;SDS011;57205;51.438;-2.006;2023-10-19T04:49:16;10.88;;;2.17;;
66667;SDS011;57205;51.438;-2.006;2023-10-19T04:51:42;10.93;;;2.35;;
66667;SDS011;57205;51.438;-2.006;2023-10-19T04:54:08;7.40;;;1.50;;
66667;SDS011;57205;51.438;-2.006;2023-10-19T04:56:34;11.23;;;1.83;;
66667;SDS011;57205;51.438;-2.006;2023-10-19T04:59:02;5.30;;;1.42;;
66667;SDS011;57205;51.438;-2.006;2023-10-19T05:01:28;10.77;;;2.05;;
66667;SDS011;57205;51.438;-2.006;2023-10-19T05:03:56;5.85;;;1.50;;
66667;SDS011;57205;51.438;-2.006;2023-10-19T05:06:21;7.15;;;2.20;;
66667;SDS011;57205;51.438;-2.006;2023-10-19T05:08:47;7.88;;;1.45;;
66667;SDS011;57205;51.438;-2.006;2023-10-19T05:11:13;9.20;;;1.83;;
66667;SDS011;57205;51.438;-2.006;2023-10-19T05:13:38;6.32;;;1.75;;
66667;SDS011;57205;51.438;-2.006;2023-10-19T05:16:05;8.30;;;1.90;;
66667;SDS011;57205;51.438;-2.006;2023-10-19T05:18:32;7.97;;;1.70;;
66667;SDS011;57205;51.438;-2.006;2023-10-19T05:20:59;5.53;;;1.63;;
66667;SDS011;57205;51.438;-2.006;2023-10-19T05:23:26;12.35;;;2.88;;
66667;SDS011;57205;51.438;-2.006;2023-10-19T05:25:54;6.70;;;1.60;;
66667;SDS011;57205;51.438;-2.006;2023-10-19T05:28:27;9.73;;;1.55;;
66667;SDS011;57205;51.438;-2.006;2023-10-19T05:30:53;9.05;;;1.65;;
66667;SDS011;57205;51.438;-2.006;2023-10-19T05:33:19;10.82;;;2.20;;
66667;SDS011;57205;51.438;-2.006;2023-10-19T05:35:49;8.55;;;1.85;;
66667;SDS011;57205;51.438;-2.006;2023-10-19T05:38:15;13.95;;;2.63;;
66667;SDS011;57205;51.438;-2.006;2023-10-19T05:40:42;12.77;;;2.30;;
66667;SDS011;57205;51.438;-2.006;2023-10-19T05:43:10;10.70;;;3.05;;
66667;SDS011;57205;51.438;-2.006;2023-10-19T05:45:36;9.63;;;2.92;;
66667;SDS011;57205;51.438;-2.006;2023-10-19T05:48:04;10.57;;;2.50;;
66667;SDS011;57205;51.438;-2.006;2023-10-19T05:50:31;11.55;;;2.08;;
66667;SDS011;57205;51.438;-2.006;2023-10-19T05:52:58;19.30;;;4.82;;
66667;SDS011;57205;51.438;-2.006;2023-10-19T05:55:25;12.50;;;2.30;;
66667;SDS011;57205;51.438;-2.006;2023-10-19T05:57:50;15.45;;;2.72;;
66667;SDS011;57205;51.438;-2.006;2023-10-19T06:00:16;13.70;;;2.60;;
66667;SDS011;57205;51.438;-2.006;2023-10-19T06:02:43;10.68;;;2.50;;
66667;SDS011;57205;51.438;-2.006;2023-10-19T06:05:12;11.65;;;3.17;;
66667;SDS011;57205;51.438;-2.006;2023-10-19T06:07:43;7.00;;;1.92;;
66667;SDS011;57205;51.438;-2.006;2023-10-19T06:10:20;12.88;;;2.15;;
66667;SDS011;57205;51.438;-2.006;2023-10-19T06:12:50;9.93;;;3.10;;
66667;SDS011;57205;51.438;-2.006;2023-10-19T06:15:18;11.20;;;1.95;;
66667;SDS011;57205;51.438;-2.006;2023-10-19T06:17:46;15.82;;;3.25;;
66667;SDS011;57205;51.438;-2.006;2023-10-19T06:20:13;13.60;;;2.80;;
66667;SDS011;57205;51.438;-2.006;2023-10-19T06:22:50;13.02;;;2.60;;
66667;SDS011;57205;51.438;-2.006;2023-10-19T06:25:21;16.33;;;2.50;;
66667;SDS011;57205;51.438;-2.006;2023-10-19T06:27:47;12.10;;;2.00;;
66667;SDS011;57205;51.438;-2.006;2023-10-19T06:30:14;8.45;;;1.85;;
66667;SDS011;57205;51.438;-2.006;2023-10-19T06:32:46;6.97;;;1.77;;
66667;SDS011;57205;51.438;-2.006;2023-10-19T06:35:13;13.50;;;2.42;;
66667;SDS011;57205;51.438;-2.006;2023-10-19T06:37:38;17.42;;;2.10;;
66667;SDS011;57205;51.438;-2.006;2023-10-19T06:43:08;12.65;;;2.70;;
66667;SDS011;57205;51.438;-2.006;2023-10-19T06:45:36;11.45;;;2.85;;
66667;SDS011;57205;51.438;-2.006;2023-10-19T06:48:01;17.48;;;3.30;;
66667;SDS011;57205;51.438;-2.006;2023-10-19T06:50:39;7.18;;;1.85;;
66667;SDS011;57205;51.438;-2.006;2023-10-19T06:53:13;19.40;;;3.10;;
66667;SDS011;57205;51.438;-2.006;2023-10-19T06:55:38;12.18;;;2.42;;
66667;SDS011;57205;51.438;-2.006;2023-10-19T06:58:05;14.57;;;3.08;;
66667;SDS011;57205;51.438;-2.006;2023-10-19T07:00:31;13.05;;;2.53;;
66667;SDS011;57205;51.438;-2.006;2023-10-19T07:02:58;10.48;;;2.03;;
66667;SDS011;57205;51.438;-2.006;2023-10-19T07:05:27;10.65;;;2.33;;
66667;SDS011;57205;51.438;-2.006;2023-10-19T07:07:56;11.95;;;2.13;;
66667;SDS011;57205;51.438;-2.006;2023-10-19T07:10:24;9.70;;;1.50;;
66667;SDS011;57205;51.438;-2.006;2023-10-19T07:12:51;11.80;;;1.85;;
66667;SDS011;57205;51.438;-2.006;2023-10-19T07:15:21;5.25;;;1.50;;
66667;SDS011;57205;51.438;-2.006;2023-10-19T07:17:49;5.55;;;1.90;;
66667;SDS011;57205;51.438;-2.006;2023-10-19T07:20:18;5.78;;;1.40;;
66667;SDS011;57205;51.438;-2.006;2023-10-19T07:23:02;6.45;;;1.35;;
66667;SDS011;57205;51.438;-2.006;2023-10-19T07:25:45;3.40;;;1.33;;
66667;SDS011;57205;51.438;-2.006;2023-10-19T07:28:12;6.18;;;1.30;;
66667;SDS011;57205;51.438;-2.006;2023-10-19T07:30:39;5.43;;;1.23;;
66667;SDS011;57205;51.438;-2.006;2023-10-19T07:33:09;9.13;;;1.50;;
66667;SDS011;57205;51.438;-2.006;2023-10-19T07:35:36;10.00;;;1.30;;
66667;SDS011;57205;51.438;-2.006;2023-10-19T07:38:04;7.55;;;1.55;;
66667;SDS011;57205;51.438;-2.006;2023-10-19T07:40:32;5.90;;;1.33;;
66667;SDS011;57205;51.438;-2.006;2023-10-19T07:42:58;4.30;;;1.10;;
66667;SDS011;57205;51.438;-2.006;2023-10-19T07:45:24;4.63;;;1.30;;
66667;SDS011;57205;51.438;-2.006;2023-10-19T07:47:50;6.95;;;1.42;;
66667;SDS011;57205;51.438;-2.006;2023-10-19T07:50:16;5.60;;;1.20;;
66667;SDS011;57205;51.438;-2.006;2023-10-19T07:52:49;4.10;;;1.35;;
66667;SDS011;57205;51.438;-2.006;2023-10-19T07:55:16;4.15;;;1.20;;
66667;SDS011;57205;51.438;-2.006;2023-10-19T07:57:43;5.40;;;1.10;;
66667;SDS011;57205;51.438;-2.006;2023-10-19T08:00:09;5.47;;;1.30;;
66667;SDS011;57205;51.438;-2.006;2023-10-19T08:02:38;5.35;;;1.08;;
66667;SDS011;57205;51.438;-2.006;2023-10-19T08:05:06;6.70;;;1.00;;
66667;SDS011;57205;51.438;-2.006;2023-10-19T08:07:32;4.13;;;1.58;;
66667;SDS011;57205;51.438;-2.006;2023-10-19T08:10:00;4.55;;;0.85;;
66667;SDS011;57205;51.438;-2.006;2023-10-19T08:12:27;4.63;;;1.00;;
66667;SDS011;57205;51.438;-2.006;2023-10-19T08:14:56;4.93;;;1.42;;
66667;SDS011;57205;51.438;-2.006;2023-10-19T08:17:24;9.95;;;2.33;;
66667;SDS011;57205;51.438;-2.006;2023-10-19T08:19:49;9.25;;;1.83;;
66667;SDS011;57205;51.438;-2.006;2023-10-19T08:22:15;11.38;;;2.50;;
66667;SDS011;57205;51.438;-2.006;2023-10-19T08:24:41;14.55;;;2.42;;
66667;SDS011;57205;51.438;-2.006;2023-10-19T08:27:11;8.80;;;2.13;;
66667;SDS011;57205;51.438;-2.006;2023-10-19T08:29:37;10.02;;;2.65;;
66667;SDS011;57205;51.438;-2.006;2023-10-19T08:32:03;8.98;;;2.40;;
66667;SDS011;57205;51.438;-2.006;2023-10-19T08:34:29;14.70;;;2.50;;
66667;SDS011;57205;51.438;-2.006;2023-10-19T08:37:00;10.15;;;2.28;;
66667;SDS011;57205;51.438;-2.006;2023-10-19T08:39:27;11.43;;;2.30;;
66667;SDS011;57205;51.438;-2.006;2023-10-19T08:42:00;11.20;;;2.22;;
66667;SDS011;57205;51.438;-2.006;2023-10-19T08:44:39;9.57;;;2.33;;
66667;SDS011;57205;51.438;-2.006;2023-10-19T08:47:06;11.27;;;2.65;;
66667;SDS011;57205;51.438;-2.006;2023-10-19T08:49:34;10.32;;;2.60;;
66667;SDS011;57205;51.438;-2.006;2023-10-19T08:51:59;11.38;;;2.20;;
66667;SDS011;57205;51.438;-2.006;2023-10-19T08:54:29;11.18;;;2.40;;
66667;SDS011;57205;51.438;-2.006;2023-10-19T08:56:55;12.02;;;2.25;;
66667;SDS011;57205;51.438;-2.006;2023-10-19T08:59:21;8.90;;;2.05;;
66667;SDS011;57205;51.438;-2.006;2023-10-19T09:01:47;14.25;;;2.97;;
66667;SDS011;57205;51.438;-2.006;2023-10-19T09:04:14;12.55;;;2.40;;
66667;SDS011;57205;51.438;-2.006;2023-10-19T09:06:41;16.17;;;2.97;;
66667;SDS011;57205;51.438;-2.006;2023-10-19T09:09:08;13.20;;;2.47;;
66667;SDS011;57205;51.438;-2.006;2023-10-19T09:11:34;10.55;;;2.22;;
66667;SDS011;57205;51.438;-2.006;2023-10-19T09:14:00;10.25;;;2.47;;
66667;SDS011;57205;51.438;-2.006;2023-10-19T09:16:29;9.45;;;2.08;;
66667;SDS011;57205;51.438;-2.006;2023-10-19T09:18:55;12.68;;;2.90;;
66667;SDS011;57205;51.438;-2.006;2023-10-19T09:21:22;15.98;;;3.33;;
66667;SDS011;57205;51.438;-2.006;2023-10-19T09:23:58;13.10;;;2.90;;
66667;SDS011;57205;51.438;-2.006;2023-10-19T09:26:25;10.93;;;3.20;;
66667;SDS011;57205;51.438;-2.006;2023-10-19T09:28:52;12.27;;;2.22;;
66667;SDS011;57205;51.438;-2.006;2023-10-19T09:31:19;8.88;;;2.33;;
66667;SDS011;57205;51.438;-2.006;2023-10-19T09:33:46;12.43;;;2.40;;
66667;SDS011;57205;51.438;-2.006;2023-10-19T09:36:14;8.60;;;2.30;;
66667;SDS011;57205;51.438;-2.006;2023-10-19T09:41:22;10.20;;;2.15;;
66667;SDS011;57205;51.438;-2.006;2023-10-19T09:43:53;12.73;;;2.55;;
66667;SDS011;57205;51.438;-2.006;2023-10-19T09:46:29;9.25;;;2.45;;
66667;SDS011;57205;51.438;-2.006;2023-10-19T09:48:57;13.63;;;2.47;;
66667;SDS011;57205;51.438;-2.006;2023-10-19T09:51:23;11.07;;;2.30;;
66667;SDS011;57205;51.438;-2.006;2023-10-19T09:54:00;10.95;;;3.50;;
66667;SDS011;57205;51.438;-2.006;2023-10-19T09:56:38;12.27;;;2.78;;
66667;SDS011;57205;51.438;-2.006;2023-10-19T09:59:11;11.30;;;2.38;;
66667;SDS011;57205;51.438;-2.006;2023-10-19T10:04:31;6.60;;;2.35;;
66667;SDS011;57205;51.438;-2.006;2023-10-19T10:06:58;18.55;;;2.70;;
66667;SDS011;57205;51.438;-2.006;2023-10-19T10:09:28;8.65;;;2.47;;
66667;SDS011;57205;51.438;-2.006;2023-10-19T10:12:16;15.45;;;3.38;;
66667;SDS011;57205;51.438;-2.006;2023-10-19T10:14:54;16.92;;;4.15;;
66667;SDS011;57205;51.438;-2.006;2023-10-19T10:17:28;8.90;;;2.03;;
66667;SDS011;57205;51.438;-2.006;2023-10-19T10:22:42;7.60;;;2.35;;
66667;SDS011;57205;51.438;-2.006;2023-10-19T10:25:08;9.98;;;2.55;;
66667;SDS011;57205;51.438;-2.006;2023-10-19T10:27:52;9.45;;;2.50;;
66667;SDS011;57205;51.438;-2.006;2023-10-19T10:30:18;12.50;;;2.75;;
66667;SDS011;57205;51.438;-2.006;2023-10-19T10:32:47;13.60;;;2.88;;
66667;SDS011;57205;51.438;-2.006;2023-10-19T10:38:01;17.92;;;3.10;;
66667;SDS011;57205;51.438;-2.006;2023-10-19T10:40:27;13.40;;;2.85;;
66667;SDS011;57205;51.438;-2.006;2023-10-19T10:43:12;13.25;;;3.33;;
66667;SDS011;57205;51.438;-2.006;2023-10-19T10:45:37;11.55;;;2.58;;
66667;SDS011;57205;51.438;-2.006;2023-10-19T10:48:03;12.63;;;2.30;;
66667;SDS011;57205;51.438;-2.006;2023-10-19T10:50:29;14.05;;;4.00;;
66667;SDS011;57205;51.438;-2.006;2023-10-19T10:52:54;12.98;;;2.55;;
66667;SDS011;57205;51.438;-2.006;2023-10-19T10:55:23;15.00;;;3.58;;
66667;SDS011;57205;51.438;-2.006;2023-10-19T10:57:52;15.55;;;2.55;;
66667;SDS011;57205;51.438;-2.006;2023-10-19T11:00:19;11.93;;;2.80;;
66667;SDS011;57205;51.438;-2.006;2023-10-19T11:02:46;12.05;;;3.08;;
66667;SDS011;57205;51.438;-2.006;2023-10-19T11:05:23;13.23;;;2.75;;
66667;SDS011;57205;51.438;-2.006;2023-10-19T11:13:46;15.18;;;3.13;;
66667;SDS011;57205;51.438;-2.006;2023-10-19T11:16:21;11.45;;;2.83;;
66667;SDS011;57205;51.438;-2.006;2023-10-19T11:18:48;11.00;;;2.67;;
66667;SDS011;57205;51.438;-2.006;2023-10-19T11:21:15;14.35;;;3.08;;
66667;SDS011;57205;51.438;-2.006;2023-10-19T11:23:47;17.55;;;2.47;;
66667;SDS011;57205;51.438;-2.006;2023-10-19T11:26:15;16.33;;;2.80;;
66667;SDS011;57205;51.438;-2.006;2023-10-19T11:28:42;13.07;;;2.67;;
66667;SDS011;57205;51.438;-2.006;2023-10-19T11:33:38;13.60;;;2.13;;
66667;SDS011;57205;51.438;-2.006;2023-10-19T11:36:04;6.75;;;2.00;;
66667;SDS011;57205;51.438;-2.006;2023-10-19T11:38:29;8.13;;;1.80;;
66667;SDS011;57205;51.438;-2.006;2023-10-19T11:40:55;5.18;;;1.58;;
66667;SDS011;57205;51.438;-2.006;2023-10-19T11:43:21;5.20;;;1.60;;
66667;SDS011;57205;51.438;-2.006;2023-10-19T11:45:46;5.93;;;1.60;;
66667;SDS011;57205;51.438;-2.006;2023-10-19T11:48:12;6.85;;;1.60;;
66667;SDS011;57205;51.438;-2.006;2023-10-19T11:50:37;5.40;;;1.30;;
66667;SDS011;57205;51.438;-2.006;2023-10-19T11:53:04;7.95;;;3.67;;
66667;SDS011;57205;51.438;-2.006;2023-10-19T11:55:30;5.90;;;1.27;;
66667;SDS011;57205;51.438;-2.006;2023-10-19T11:57:56;7.43;;;1.75;;
66667;SDS011;57205;51.438;-2.006;2023-10-19T12:00:22;13.60;;;3.50;;
66667;SDS011;57205;51.438;-2.006;2023-10-19T12:02:58;6.75;;;1.85;;
66667;SDS011;57205;51.438;-2.006;2023-10-19T12:05:24;9.55;;;2.00;;
66667;SDS011;57205;51.438;-2.006;2023-10-19T12:07:50;8.80;;;1.90;;
66667;SDS011;57205;51.438;-2.006;2023-10-19T12:10:17;9.10;;;2.58;;
66667;SDS011;57205;51.438;-2.006;2023-10-19T12:12:45;11.27;;;2.42;;
66667;SDS011;57205;51.438;-2.006;2023-10-19T12:15:11;9.30;;;1.90;;
66667;SDS011;57205;51.438;-2.006;2023-10-19T12:17:40;8.30;;;2.22;;
66667;SDS011;57205;51.438;-2.006;2023-10-19T12:20:05;11.35;;;2.30;;
66667;SDS011;57205;51.438;-2.006;2023-10-19T12:22:32;7.15;;;1.88;;
66667;SDS011;57205;51.438;-2.006;2023-10-19T12:25:06;8.07;;;2.20;;
66667;SDS011;57205;51.438;-2.006;2023-10-19T12:27:32;6.40;;;1.85;;
66667;SDS011;57205;51.438;-2.006;2023-10-19T12:29:58;8.35;;;2.33;;
66667;SDS011;57205;51.438;-2.006;2023-10-19T12:32:33;9.45;;;1.77;;
66667;SDS011;57205;51.438;-2.006;2023-10-19T12:35:01;4.35;;;1.30;;
66667;SDS011;57205;51.438;-2.006;2023-10-19T12:37:28;5.22;;;1.17;;
66667;SDS011;57205;51.438;-2.006;2023-10-19T12:39:56;6.32;;;1.35;;
66667;SDS011;57205;51.438;-2.006;2023-10-19T12:42:21;6.13;;;1.33;;
66667;SDS011;57205;51.438;-2.006;2023-10-19T12:44:48;10.18;;;2.40;;
66667;SDS011;57205;51.438;-2.006;2023-10-19T12:47:14;5.70;;;1.55;;
66667;SDS011;57205;51.438;-2.006;2023-10-19T12:49:41;10.10;;;2.03;;
66667;SDS011;57205;51.438;-2.006;2023-10-19T12:52:07;10.65;;;1.83;;
66667;SDS011;57205;51.438;-2.006;2023-10-19T12:54:34;9.48;;;1.80;;
66667;SDS011;57205;51.438;-2.006;2023-10-19T12:57:03;7.88;;;1.73;;
66667;SDS011;57205;51.438;-2.006;2023-10-19T12:59:31;7.88;;;1.40;;
66667;SDS011;57205;51.438;-2.006;2023-10-19T13:01:57;12.32;;;2.08;;
66667;SDS011;57205;51.438;-2.006;2023-10-19T13:04:26;9.02;;;2.45;;
66667;SDS011;57205;51.438;-2.006;2023-10-19T13:06:55;6.88;;;1.77;;
66667;SDS011;57205;51.438;-2.006;2023-10-19T13:09:23;9.27;;;2.33;;
66667;SDS011;57205;51.438;-2.006;2023-10-19T13:11:58;8.35;;;1.95;;
66667;SDS011;57205;51.438;-2.006;2023-10-19T13:14:24;5.65;;;1.58;;
66667;SDS011;57205;51.438;-2.006;2023-10-19T13:16:51;8.63;;;2.58;;
66667;SDS011;57205;51.438;-2.006;2023-10-19T13:19:18;11.23;;;2.33;;
66667;SDS011;57205;51.438;-2.006;2023-10-19T13:21:47;13.30;;;2.33;;
66667;SDS011;57205;51.438;-2.006;2023-10-19T13:24:14;9.75;;;2.83;;
66667;SDS011;57205;51.438;-2.006;2023-10-19T13:26:42;9.75;;;3.28;;
66667;SDS011;57205;51.438;-2.006;2023-10-19T13:29:11;9.90;;;3.50;;
66667;SDS011;57205;51.438;-2.006;2023-10-19T13:31:37;11.65;;;2.60;;
66667;SDS011;57205;51.438;-2.006;2023-10-19T13:34:03;10.52;;;2.30;;
66667;SDS011;57205;51.438;-2.006;2023-10-19T13:36:31;11.02;;;2.05;;
66667;SDS011;57205;51.438;-2.006;2023-10-19T13:38:57;12.35;;;2.00;;
66667;SDS011;57205;51.438;-2.006;2023-10-19T13:41:22;12.25;;;2.53;;
66667;SDS011;57205;51.438;-2.006;2023-10-19T13:43:47;13.73;;;2.80;;
66667;SDS011;57205;51.438;-2.006;2023-10-19T13:46:19;9.35;;;2.10;;
66667;SDS011;57205;51.438;-2.006;2023-10-19T13:48:48;12.95;;;2.85;;
66667;SDS011;57205;51.438;-2.006;2023-10-19T13:51:15;10.45;;;2.05;;
66667;SDS011;57205;51.438;-2.006;2023-10-19T13:53:44;8.93;;;2.15;;
66667;SDS011;57205;51.438;-2.006;2023-10-19T13:56:12;10.38;;;2.10;;
66667;SDS011;57205;51.438;-2.006;2023-10-19T13:58:39;12.52;;;2.55;;
66667;SDS011;57205;51.438;-2.006;2023-10-19T14:01:08;10.70;;;2.40;;
66667;SDS011;57205;51.438;-2.006;2023-10-19T14:03:35;8.35;;;2.00;;
66667;SDS011;57205;51.438;-2.006;2023-10-19T14:06:05;9.50;;;2.50;;
66667;SDS011;57205;51.438;-2.006;2023-10-19T14:08:30;11.07;;;2.42;;
66667;SDS011;57205;51.438;-2.006;2023-10-19T14:11:02;12.05;;;2.25;;
66667;SDS011;57205;51.438;-2.006;2023-10-19T14:13:28;13.63;;;2.65;;
66667;SDS011;57205;51.438;-2.006;2023-10-19T14:15:54;10.35;;;2.20;;
66667;SDS011;57205;51.438;-2.006;2023-10-19T14:18:20;11.85;;;2.53;;
66667;SDS011;57205;51.438;-2.006;2023-10-19T14:20:46;10.70;;;2.40;;
66667;SDS011;57205;51.438;-2.006;2023-10-19T14:23:12;10.85;;;2.03;;
66667;SDS011;57205;51.438;-2.006;2023-10-19T14:25:38;11.10;;;1.95;;
66667;SDS011;57205;51.438;-2.006;2023-10-19T14:28:08;10.18;;;3.60;;
66667;SDS011;57205;51.438;-2.006;2023-10-19T14:30:35;8.25;;;3.08;;
66667;SDS011;57205;51.438;-2.006;2023-10-19T14:33:00;8.73;;;2.13;;
66667;SDS011;57205;51.438;-2.006;2023-10-19T14:35:26;14.40;;;2.92;;
66667;SDS011;57205;51.438;-2.006;2023-10-19T14:37:52;9.43;;;2.20;;
66667;SDS011;57205;51.438;-2.006;2023-10-19T14:40:25;13.43;;;2.92;;
66667;SDS011;57205;51.438;-2.006;2023-10-19T14:42:53;12.85;;;2.50;;
66667;SDS011;57205;51.438;-2.006;2023-10-19T14:45:24;13.20;;;2.13;;
66667;SDS011;57205;51.438;-2.006;2023-10-19T14:47:51;11.15;;;2.85;;
66667;SDS011;57205;51.438;-2.006;2023-10-19T14:50:20;11.85;;;2.53;;
66667;SDS011;57205;51.438;-2.006;2023-10-19T14:52:48;12.38;;;2.63;;
66667;SDS011;57205;51.438;-2.006;2023-10-19T14:55:19;13.40;;;3.88;;
66667;SDS011;57205;51.438;-2.006;2023-10-19T14:57:46;15.13;;;3.88;;
66667;SDS011;57205;51.438;-2.006;2023-10-19T15:00:23;15.05;;;3.88;;
66667;SDS011;57205;51.438;-2.006;2023-10-19T15:03:05;11.82;;;3.30;;
66667;SDS011;57205;51.438;-2.006;2023-10-19T15:05:32;9.80;;;4.20;;